Minneapolis, Minnesota
Traffic Map
Current Weather Conditions
Minneapolis, Minnesota
Broken Clouds
Broken Clouds
23°
Feels Like: 23°
Wind Chill: 23° Ceiling: 7000
Heat Index: 23° Visibility: 10mi
Dew Point: 16° Wind: 13mph
Humidity: 64% Direction: 140° (SE)
Pressure: 30in Gusts: 0mph
Raw Report DataKMSP 282153Z 14011KT 10SM FEW028 BKN070 BKN080 23/16 A3000 RMK AO2 SLP156 T02280156
Traffic Incident Summary
Active as of:
Severity:
Category:
InformationThere was an issue retrieving the traffic information for this location. Please try a different location or try again shortly.
Advertisements
Track Severe Weather on mobile